Terminal Aerodrome Forecast
Issued by NWS

Home | Current Version | Previous Version | Graphics & Text | Print | Product List | Glossary On
Versions: 1 2 3 4 5 6 7 8 9 10 11 12 13 14 15 16 17 18 19
000
FTUS43 KGRB 020520
TAFAUW
TAF
KAUW 020520Z 0206/0306 VRB02KT 5SM BR SCT120 BKN200
     FM020900 VRB02KT 3SM BR SCT003 SCT015 BKN120
      TEMPO 0209/0213 1SM BR BKN003
     FM021400 29004KT P6SM SCT015 BKN100
      TEMPO 0216/0220 5SM -SHRA BR BKN025
     FM022000 15004KT P6SM VCSH SCT020 BKN100
      TEMPO 0220/0224 4SM -SHRA BR BKN020
     FM030000 VRB03KT 5SM -SHRA BR BKN020 PROB30 0300/0304 4SM -TSRA
      BKN015CB=

USA.gov is the U.S. government's official web portal to all federal, state and local government web resources and services.